Latest Weather Observations for Hughenden

IDQ60801

Issued at 7:35 am EST Saturday 1 November 2014 (issued every 30 minutes, with the page automatically refreshed every 10 minutes)

About weather observations | Map of weather stations | Latest weather observations for QLD | Other Formats
Station Details ID: 030022 Name: HUGHENDEN AIRPORT Lat: -20.82 Lon: 144.23 Height: 316.4 m
Data from the previous 72 hours. | See also: Recent months at Hughenden
Date/Time
EST
Temp
°C
App
Temp
°C
Dew
Point
Rel
Hum
%
Delta-T
°C
Wind Press
QNH
hPa
Press
MSL
hPa
Rain
since 9 am
mm
Dir
 
Spd
km/h
Gust
km/h
Spd
kts
Gust
kts
01/07:30am 27.3 24.1 11.3 37 9.2 NNE 19 24 10 13 1013.9 1011.9 -
01/07:00am 26.1 23.2 11.1 39 8.6 NNE 17 20 9 11 1013.6 1011.6 -
01/06:30am 25.0 23.0 10.1 39 8.3 ENE 11 13 6 7 1012.9 1011.0 -
01/06:00am 24.7 22.2 9.8 39 8.3 NE 13 17 7 9 1012.4 1010.5 -
01/05:30am 25.2 22.2 10.6 40 8.3 NE 17 20 9 11 1011.9 1010.0 -
01/05:00am 25.1 22.5 9.4 37 8.7 NE 13 20 7 11 1011.5 1009.5 -
01/04:30am 25.1 22.8 7.3 32 9.5 NE 9 11 5 6 1011.3 1009.3 -
01/04:00am 26.5 23.2 8.0 31 10.1 NE 15 22 8 12 1010.9 1008.9 -
01/03:30am 26.8 23.2 8.3 31 10.1 NNE 17 20 9 11 1010.5 1008.5 -
01/03:00am 27.1 23.6 7.0 28 10.8 NNE 15 20 8 11 1010.3 1008.3 -
01/02:30am 27.5 22.9 6.3 26 11.3 NE 20 28 11 15 1009.9 1008.0 -
01/02:00am 27.6 23.3 5.2 24 11.7 NE 17 20 9 11 1009.9 1008.0 -
01/01:30am 28.0 23.4 5.6 24 11.8 NE 19 24 10 13 1010.1 1008.1 -
01/01:00am 28.4 24.6 5.9 24 12.0 NE 15 22 8 12 1010.4 1008.4 0.0
01/12:30am 29.2 24.5 6.0 23 12.4 NE 20 28 11 15 1010.6 1008.6 0.0
01/12:00am 29.7 24.8 7.0 24 12.4 NE 22 32 12 17 1010.8 1008.8 0.0
 
Date/Time
EST
Temp
°C
App
Temp
°C
Dew
Point
Rel
Hum
%
Delta-T
°C
Wind Press
QNH
hPa
Press
MSL
hPa
Rain
since 9 am
mm
Dir
 
Spd
km/h
Gust
km/h
Spd
kts
Gust
kts
31/11:30pm 30.2 25.0 7.4 24 12.5 NE 24 35 13 19 1011.0 1009.0 0.0
31/11:00pm 31.0 26.0 8.1 24 12.8 NE 24 37 13 20 1011.0 1009.0 0.0
31/10:30pm 31.7 26.7 8.0 23 13.3 NE 24 32 13 17 1010.8 1008.8 0.0
31/10:18pm 32.1 26.4 8.4 23 13.4 NE 28 37 15 20 1010.7 1008.7 0.0
31/10:00pm 30.9 28.7 8.0 24 12.8 NE 9 13 5 7 1010.7 1008.7 0.0
31/09:30pm 31.3 29.2 8.3 24 12.9 NNE 9 11 5 6 1010.5 1008.5 0.0
31/09:00pm 31.7 29.7 8.7 24 13.0 NE 9 11 5 6 1010.2 1008.2 0.0
31/08:30pm 32.8 30.1 8.9 23 13.6 N 13 15 7 8 1009.8 1007.9 0.0
31/08:00pm 33.3 30.9 8.7 22 14.0 N 11 17 6 9 1009.6 1007.7 0.0
31/07:30pm 33.6 30.7 8.3 21 14.3 NNE 13 17 7 9 1009.1 1007.2 0.0
31/07:00pm 34.1 30.6 8.7 21 14.6 N 17 20 9 11 1008.8 1006.8 0.0
31/06:30pm 34.1 30.8 9.4 22 14.3 N 17 28 9 15 1008.8 1006.8 0.0
31/06:00pm 34.3 31.9 10.2 23 14.1 NE 13 19 7 10 1008.2 1006.2 0.0
31/05:30pm 34.4 29.8 8.2 20 14.9 N 22 35 12 19 1008.1 1006.1 0.0
31/05:00pm 37.0 32.9 6.1 15 17.3 ENE 17 28 9 15 1007.6 1005.6 0.0
31/04:30pm 37.2 34.2 4.2 13 17.9 NE 9 17 5 9 1007.5 1005.5 0.0
31/04:00pm 37.6 35.1 4.5 13 18.1 NNW 7 15 4 8 1007.5 1005.5 0.0
31/03:30pm 37.3 34.7 4.3 13 17.9 WNW 7 13 4 7 1007.6 1005.6 0.0
31/03:00pm 37.7 34.2 3.4 12 18.4 NW 11 19 6 10 1007.8 1005.8 0.0
31/02:30pm 39.1 35.8 4.5 12 19.0 WNW 11 20 6 11 1007.9 1005.9 0.0
31/02:00pm 38.6 34.8 4.1 12 18.8 NNW 13 32 7 17 1008.3 1006.3 0.0
31/01:30pm 38.7 35.2 5.4 13 18.5 NNW 13 24 7 13 1008.7 1006.7 0.0
31/01:00pm 39.0 33.4 5.6 13 18.7 NW 24 30 13 16 1009.5 1007.6 0.0
31/12:30pm 37.8 33.2 5.7 14 17.8 N 19 30 10 16 1010.1 1008.1 0.0
31/12:00pm 37.3 32.6 5.3 14 17.7 NE 19 24 10 13 1010.6 1008.6 0.0
31/11:30am 37.2 32.5 5.3 14 17.6 N 19 35 10 19 1011.2 1009.2 0.0
31/11:00am 37.0 31.2 6.1 15 17.2 NNW 26 35 14 19 1011.7 1009.7 0.0
31/10:41am 36.7 29.9 4.9 14 17.4 NNW 30 50 16 27 1011.8 1009.9 0.0
31/10:30am 36.0 30.0 5.3 15 16.8 N 26 37 14 20 1012.0 1010.1 0.0
31/10:00am 34.7 29.1 5.2 16 16.0 NNE 24 39 13 21 1012.3 1010.4 0.0
31/09:30am 34.1 29.3 7.2 19 15.0 NE 22 32 12 17 1012.5 1010.6 0.0
31/09:00am 32.7 28.9 7.5 21 14.1 NE 17 22 9 12 1012.8 1010.9 0.0
31/08:30am 31.1 26.9 7.5 23 13.1 NE 19 24 10 13 1012.9 1011.0 0.0
31/08:00am 29.7 25.8 7.0 24 12.4 NE 17 20 9 11 1012.8 1010.9 0.0
31/07:30am 28.7 24.7 6.7 25 11.9 NE 17 20 9 11 1012.6 1010.7 0.0
31/07:00am 27.2 24.4 7.1 28 10.8 NE 11 15 6 8 1012.5 1010.6 0.0
31/06:30am 27.1 23.8 6.5 27 11.0 N 13 17 7 9 1012.1 1010.2 0.0
31/06:00am 26.7 23.5 6.7 28 10.7 NNE 13 15 7 8 1011.8 1009.9 0.0
31/05:30am 26.9 23.3 6.9 28 10.7 NE 15 19 8 10 1011.4 1009.4 0.0
31/05:00am 26.8 23.7 7.3 29 10.5 NE 13 17 7 9 1011.2 1009.2 0.0
31/04:30am 27.0 24.7 7.5 29 10.6 NNE 9 15 5 8 1010.8 1008.8 0.0
31/04:00am 27.5 23.2 7.9 29 10.7 NNE 20 32 11 17 1010.1 1008.1 0.0
31/03:30am 27.8 23.2 8.1 29 10.8 NNE 22 30 12 16 1009.6 1007.7 0.0
31/03:00am 28.2 22.8 8.0 28 11.1 NE 26 35 14 19 1009.4 1007.5 0.0
31/02:30am 28.7 21.2 7.9 27 11.4 NE 37 50 20 27 1009.4 1007.5 0.0
31/02:21am 28.8 22.5 7.4 26 11.7 NNE 30 50 16 27 1009.4 1007.5 0.0
31/02:00am 29.2 24.4 7.2 25 12.0 NNE 22 30 12 16 1009.6 1007.7 0.0
31/01:30am 29.3 24.8 6.0 23 12.5 NE 19 26 10 14 1009.9 1008.0 0.0
31/01:00am 29.9 25.3 6.5 23 12.7 NE 20 28 11 15 1009.9 1008.0 0.0
31/12:30am 30.4 25.9 7.0 23 12.8 NE 20 24 11 13 1010.1 1008.1 0.0
31/12:00am 31.0 25.9 7.5 23 13.0 NNE 24 35 13 19 1010.2 1008.2 0.0
 
Date/Time
EST
Temp
°C
App
Temp
°C
Dew
Point
Rel
Hum
%
Delta-T
°C
Wind Press
QNH
hPa
Press
MSL
hPa
Rain
since 9 am
mm
Dir
 
Spd
km/h
Gust
km/h
Spd
kts
Gust
kts
30/11:30pm 31.5 26.4 9.1 25 12.7 NNE 26 32 14 17 1010.4 1008.4 0.0
30/11:00pm 32.2 27.5 9.1 24 13.2 NE 24 37 13 20 1010.3 1008.3 0.0
30/10:30pm 32.9 27.2 8.4 22 13.9 NE 28 43 15 23 1010.2 1008.2 0.0
30/10:00pm 33.4 28.0 8.1 21 14.3 NE 26 39 14 21 1010.2 1008.2 0.0
30/09:30pm 34.6 28.8 2.2 13 16.8 NE 22 35 12 19 1009.7 1007.8 0.0
30/09:00pm 34.8 30.1 1.2 12 17.2 ENE 15 19 8 10 1009.1 1007.2 0.0
30/08:30pm 34.5 31.5 1.0 12 17.0 NNE 6 11 3 6 1009.0 1007.1 0.0
30/08:00pm 35.3 31.7 2.7 13 17.1 E 11 15 6 8 1008.8 1006.8 0.0
30/07:30pm 32.5 29.1 1.6 14 15.6 SW 9 11 5 6 1008.2 1006.2 0.0
30/07:00pm 33.6 30.5 0.3 12 16.6 SE 6 7 3 4 1007.9 1005.9 0.0
30/06:30pm 36.1 32.9 1.0 11 18.0 SE 7 9 4 5 1007.7 1005.7 0.0
30/06:00pm 38.1 35.0 1.2 10 19.2 SSW 7 11 4 6 1007.5 1005.5 0.0
30/05:30pm 38.9 36.1 1.8 10 19.6 SW 6 13 3 7 1007.3 1005.3 0.0
30/05:00pm 39.2 35.1 2.0 10 19.7 W 13 19 7 10 1007.2 1005.2 0.0
30/04:30pm 39.2 35.8 2.0 10 19.7 ENE 9 17 5 9 1007.2 1005.2 0.0
30/04:00pm 39.0 35.6 1.9 10 19.6 W 9 20 5 11 1007.4 1005.4 0.0
30/03:30pm 39.7 35.6 2.4 10 19.9 W 13 19 7 10 1007.4 1005.4 0.0
30/03:00pm 39.4 35.7 2.2 10 19.8 ENE 11 20 6 11 1007.8 1005.8 0.0
30/02:30pm 38.3 35.2 1.3 10 19.3 WNW 7 13 4 7 1008.2 1006.2 0.0
30/02:00pm 39.2 34.7 2.0 10 19.7 NW 15 30 8 16 1008.6 1006.6 0.0
30/01:30pm 38.4 34.2 1.4 10 19.3 WNW 13 19 7 10 1009.1 1007.2 0.0
30/01:00pm 38.7 35.5 3.0 11 19.2 E 9 20 5 11 1009.4 1007.5 0.0
30/12:30pm 37.7 33.8 3.4 12 18.4 N 13 26 7 14 1010.3 1008.3 0.0
30/12:00pm 37.9 34.8 3.6 12 18.5 E 9 13 5 7 1011.0 1009.0 0.0
30/11:33am 37.3 30.7 4.3 13 17.9 N 28 33 15 18 1011.4 1009.4 0.0
30/11:30am 37.0 34.0 4.0 13 17.8 NNW 9 11 5 6 1011.5 1009.5 0.0
30/11:13am 36.7 30.0 3.8 13 17.7 NW 28 54 15 29 1011.7 1009.7 0.0
30/11:00am 36.9 31.4 4.0 13 17.8 N 22 35 12 19 1012.0 1010.1 0.0
30/10:30am 36.0 30.8 5.3 15 16.8 NNW 22 33 12 18 1012.5 1010.6 0.0
30/10:00am 35.0 30.9 6.3 17 15.9 N 17 28 9 15 1013.0 1011.1 0.0
30/09:30am 33.8 30.5 6.2 18 15.2 N 13 17 7 9 1013.6 1011.6 0.0
30/09:00am 33.3 29.8 7.3 20 14.5 N 15 20 8 11 1013.7 1011.7 0.0
30/08:30am 31.9 28.1 7.5 22 13.6 NNE 17 24 9 13 1013.9 1011.9 0.0
30/08:00am 30.7 27.0 7.8 24 12.7 NE 17 24 9 13 1013.6 1011.6 0.0
30/07:30am 29.3 25.9 7.8 26 11.8 ENE 15 20 8 11 1013.3 1011.4 0.0
30/07:00am 27.7 25.2 8.1 29 10.8 ENE 11 19 6 10 1012.9 1011.0 0.0
30/06:30am 24.0 21.4 6.3 32 9.2 NE 9 11 5 6 1012.6 1010.7 0.0
30/06:00am 22.2 19.0 5.2 33 8.6 E 11 13 6 7 1012.2 1010.3 0.0
30/05:30am 21.8 19.0 5.3 34 8.3 E 9 11 5 6 1011.9 1010.0 0.0
30/05:00am 22.6 19.6 6.0 34 8.5 ENE 11 15 6 8 1011.3 1009.3 0.0
30/04:30am 24.3 21.3 6.1 31 9.5 NNE 11 13 6 7 1011.1 1009.1 0.0
30/04:00am 24.8 21.8 6.1 30 9.8 N 11 13 6 7 1010.9 1008.9 0.0
30/03:30am 24.5 21.8 5.8 30 9.7 NNW 9 13 5 7 1011.1 1009.1 0.0
30/03:00am 25.4 22.8 6.1 29 10.1 NW 9 11 5 6 1011.1 1009.1 0.0
30/02:30am 25.9 23.7 6.0 28 10.4 N 7 11 4 6 1011.0 1009.0 0.0
30/02:00am 27.5 24.3 6.8 27 11.1 NE 13 19 7 10 1011.0 1009.0 0.0
30/01:30am 26.8 23.1 6.2 27 10.9 ENE 15 17 8 9 1011.2 1009.2 0.0
30/01:00am 27.3 25.2 5.6 25 11.4 N 6 9 3 5 1011.3 1009.3 0.0
30/12:30am 29.0 26.3 5.8 23 12.3 N 9 13 5 7 1011.4 1009.4 0.0
30/12:00am 30.1 27.5 6.1 22 12.9 NNE 9 13 5 7 1011.5 1009.5 0.0
 
Date/Time
EST
Temp
°C
App
Temp
°C
Dew
Point
Rel
Hum
%
Delta-T
°C
Wind Press
QNH
hPa
Press
MSL
hPa
Rain
since 9 am
mm
Dir
 
Spd
km/h
Gust
km/h
Spd
kts
Gust
kts
29/11:30pm 30.9 27.9 6.0 21 13.4 N 11 17 6 9 1011.9 1010.0 0.0
29/11:00pm 32.0 27.8 5.5 19 14.3 NNE 17 24 9 13 1012.0 1010.1 0.0
29/10:30pm 32.7 27.5 5.3 18 14.8 N 22 39 12 21 1011.9 1010.0 0.0
29/10:00pm 32.6 28.1 4.4 17 15.0 N 17 22 9 12 1011.9 1010.0 0.0
29/09:30pm 33.4 29.3 4.2 16 15.5 ENE 15 20 8 11 1011.3 1009.3 0.0
29/09:00pm 33.2 29.8 4.0 16 15.5 ENE 11 13 6 7 1010.9 1008.9 0.0
29/08:30pm 33.8 29.6 3.6 15 15.9 ENE 15 20 8 11 1010.7 1008.7 0.0
29/08:00pm 34.3 28.8 4.0 15 16.1 NE 22 28 12 15 1010.4 1008.4 0.0
29/07:30pm 33.1 28.0 3.0 15 15.6 ENE 19 24 10 13 1009.9 1008.0 0.0
29/07:00pm 33.0 30.6 2.0 14 15.9 SE 4 6 2 3 1009.5 1007.6 0.0
29/06:30pm 35.2 33.4 1.5 12 17.3 CALM 0 0 0 0 1009.2 1007.3 0.0
29/06:00pm 37.0 34.2 2.9 12 18.1 SSW 7 13 4 7 1009.0 1007.1 0.0
29/05:30pm 37.9 34.2 2.4 11 18.8 S 11 20 6 11 1008.8 1006.8 0.0
29/05:00pm 38.5 35.3 2.8 11 19.1 WNW 9 19 5 10 1008.7 1006.7 0.0
29/04:30pm 39.1 35.2 3.3 11 19.3 WNW 13 19 7 10 1008.6 1006.6 0.0
29/04:00pm 38.0 34.7 2.4 11 18.9 W 9 15 5 8 1008.6 1006.6 0.0
29/03:30pm 37.5 34.6 4.4 13 18.0 SSW 9 41 5 22 1008.7 1006.7 0.0
29/03:00pm 38.5 34.9 2.8 11 19.1 W 11 17 6 9 1009.1 1007.2 0.0
29/02:30pm 39.7 35.6 2.4 10 19.9 WSW 13 26 7 14 1009.5 1007.6 0.0
29/02:00pm 40.3 35.0 2.8 10 20.2 SW 20 30 11 16 1009.9 1008.0 0.0
29/01:30pm 39.6 36.3 2.3 10 19.9 SE 9 15 5 8 1010.4 1008.4 0.0
29/01:00pm 39.1 36.5 3.3 11 19.3 S 6 9 3 5 1011.0 1009.0 0.0
29/12:30pm 38.3 34.3 2.7 11 19.0 W 13 22 7 12 1011.5 1009.5 0.0
29/12:00pm 37.5 34.3 3.3 12 18.3 WNW 9 17 5 9 1012.1 1010.2 0.0
29/11:30am 37.3 33.7 3.1 12 18.2 NNW 11 20 6 11 1012.6 1010.7 0.0
29/11:00am 36.7 31.3 2.7 12 18.0 NNW 20 33 11 18 1013.0 1011.1 0.0
29/10:30am 36.2 30.0 2.3 12 17.7 NW 24 33 13 18 1013.6 1011.6 0.0
29/10:00am 35.8 30.5 3.1 13 17.3 NW 20 32 11 17 1013.8 1011.8 0.0
29/09:30am 35.0 29.8 3.5 14 16.7 WNW 20 32 11 17 1014.2 1012.2 0.0
29/09:00am 34.2 28.5 2.9 14 16.3 NW 22 32 12 17 1014.3 1012.3 0.0
29/08:30am 33.4 28.9 4.2 16 15.5 NW 17 24 9 13 1014.4 1012.4 0.0
29/08:00am 32.1 27.0 4.0 17 14.8 NNW 20 24 11 13 1014.1 1012.1 0.0

Other Formats:

Comma delimited format used in spreadsheet applications
http://www.bom.gov.au/fwo/IDQ60801/IDQ60801.94343.axf

JavaScript Object Notation format (JSON) in row-major order
http://www.bom.gov.au/fwo/IDQ60801/IDQ60801.94343.json